FBD763 UNAA-UNKL
Flight info
| Callsign | FBD763 |
|---|---|
| Flight time | 0h 44m |
| Altitude | 21000 |
| Route | SELTI1D SELTI B951 ROGMA ROGMA2Z |
| Aircraft | DH8D/M-SDE2E3FGRY/H |
Departure
| Time | 2026-05-08 16:21 |
|---|---|
| Airport | Abakan International Airport (UNAA) |
Arrival
| Time | 2026-05-08 17:05 |
|---|---|
| Airport | Krasnoyarsk International Airport (UNKL) |
| Time | Latitude | Longitude | Altitude | Speed | Heading |
|---|---|---|---|---|---|
| 2026-05-08 15:58 | 53.74995 | 91.39808 | 816 ft | 0 kts | 342° |
| 2026-05-08 16:18 | 53.75007 | 91.39802 | 816 ft | 9 kts | 342° |
| 2026-05-08 16:18 | 53.75037 | 91.39716 | 816 ft | 9 kts | 290° |
| 2026-05-08 16:18 | 53.75104 | 91.39651 | 817 ft | 14 kts | 341° |
| 2026-05-08 16:18 | 53.75137 | 91.39632 | 817 ft | 0 kts | 341° |
| 2026-05-08 16:19 | 53.75142 | 91.39629 | 817 ft | 5 kts | 341° |
| 2026-05-08 16:19 | 53.75237 | 91.39572 | 818 ft | 16 kts | 323° |
| 2026-05-08 16:20 | 53.75220 | 91.39459 | 819 ft | 16 kts | 201° |
| 2026-05-08 16:20 | 53.75009 | 91.39291 | 822 ft | 66 kts | 204° |
| 2026-05-08 16:20 | 53.74325 | 91.38765 | 823 ft | 143 kts | 204° |
| 2026-05-08 16:20 | 53.73395 | 91.37942 | 1260 ft | 153 kts | 212° |
| 2026-05-08 16:21 | 53.72447 | 91.37025 | 1823 ft | 166 kts | 209° |
| 2026-05-08 16:21 | 53.71434 | 91.36130 | 2557 ft | 167 kts | 208° |
| 2026-05-08 16:21 | 53.70393 | 91.35286 | 3210 ft | 168 kts | 208° |
| 2026-05-08 16:21 | 53.69321 | 91.34486 | 3819 ft | 172 kts | 207° |
| 2026-05-08 16:22 | 53.68224 | 91.33676 | 4505 ft | 172 kts | 207° |
| 2026-05-08 16:22 | 53.67232 | 91.32652 | 5125 ft | 171 kts | 236° |
| 2026-05-08 16:22 | 53.66995 | 91.30733 | 5467 ft | 180 kts | 290° |
| 2026-05-08 16:22 | 53.67873 | 91.29288 | 5918 ft | 189 kts | 342° |
| 2026-05-08 16:23 | 53.69197 | 91.29200 | 6492 ft | 197 kts | 2° |
| 2026-05-08 16:23 | 53.70554 | 91.29443 | 7157 ft | 200 kts | 4° |
| 2026-05-08 16:23 | 53.71947 | 91.29757 | 7830 ft | 203 kts | 5° |
| 2026-05-08 16:23 | 53.73324 | 91.30114 | 8486 ft | 205 kts | 6° |
| 2026-05-08 16:24 | 53.74743 | 91.30514 | 9144 ft | 207 kts | 7° |
| 2026-05-08 16:24 | 53.76157 | 91.30936 | 9755 ft | 212 kts | 7° |
| 2026-05-08 16:24 | 53.77705 | 91.31410 | 10000 ft | 234 kts | 7° |
| 2026-05-08 16:24 | 53.79315 | 91.31925 | 10596 ft | 239 kts | 8° |
| 2026-05-08 16:25 | 53.80933 | 91.32454 | 11184 ft | 242 kts | 8° |
| 2026-05-08 16:25 | 53.82596 | 91.33006 | 11782 ft | 245 kts | 8° |
| 2026-05-08 16:25 | 53.84267 | 91.33566 | 12383 ft | 247 kts | 8° |
| 2026-05-08 16:25 | 53.85950 | 91.34133 | 12926 ft | 250 kts | 8° |
| 2026-05-08 16:26 | 53.87658 | 91.34713 | 13472 ft | 252 kts | 8° |
| 2026-05-08 16:26 | 53.89388 | 91.35303 | 13989 ft | 254 kts | 8° |
| 2026-05-08 16:26 | 53.91148 | 91.35905 | 14531 ft | 255 kts | 8° |
| 2026-05-08 16:26 | 53.92895 | 91.36506 | 14986 ft | 257 kts | 8° |
| 2026-05-08 16:27 | 53.94653 | 91.37107 | 15451 ft | 260 kts | 8° |
| 2026-05-08 16:27 | 53.96419 | 91.37716 | 15907 ft | 261 kts | 8° |
| 2026-05-08 16:27 | 53.98208 | 91.38337 | 16383 ft | 262 kts | 8° |
| 2026-05-08 16:27 | 53.99981 | 91.38948 | 16813 ft | 263 kts | 8° |
| 2026-05-08 16:28 | 54.01782 | 91.39571 | 17244 ft | 264 kts | 8° |
| 2026-05-08 16:28 | 54.03613 | 91.40205 | 17643 ft | 266 kts | 8° |
| 2026-05-08 16:28 | 54.05423 | 91.40834 | 18049 ft | 268 kts | 7° |
| 2026-05-08 16:28 | 54.07254 | 91.41470 | 18459 ft | 268 kts | 7° |
| 2026-05-08 16:29 | 54.09091 | 91.42107 | 18814 ft | 271 kts | 7° |
| 2026-05-08 16:29 | 54.10923 | 91.42746 | 19188 ft | 272 kts | 7° |
| 2026-05-08 16:29 | 54.12799 | 91.43399 | 19565 ft | 273 kts | 7° |
| 2026-05-08 16:29 | 54.14684 | 91.44056 | 19905 ft | 275 kts | 7° |
| 2026-05-08 16:30 | 54.16595 | 91.44724 | 20255 ft | 276 kts | 7° |
| 2026-05-08 16:30 | 54.18490 | 91.45385 | 20544 ft | 278 kts | 7° |
| 2026-05-08 16:30 | 54.20380 | 91.45972 | 20834 ft | 278 kts | 4° |
| 2026-05-08 16:30 | 54.22347 | 91.46414 | 20925 ft | 286 kts | 2° |
| 2026-05-08 16:31 | 54.24340 | 91.46844 | 20948 ft | 294 kts | 2° |
| 2026-05-08 16:31 | 54.26400 | 91.47295 | 20951 ft | 302 kts | 3° |
| 2026-05-08 16:31 | 54.28495 | 91.47763 | 20949 ft | 308 kts | 3° |
| 2026-05-08 16:31 | 54.30660 | 91.48251 | 20944 ft | 313 kts | 3° |
| 2026-05-08 16:32 | 54.32835 | 91.48747 | 20950 ft | 317 kts | 3° |
| 2026-05-08 16:32 | 54.35040 | 91.49251 | 20950 ft | 321 kts | 3° |
| 2026-05-08 16:32 | 54.37247 | 91.49759 | 20946 ft | 324 kts | 3° |
| 2026-05-08 16:32 | 54.39482 | 91.50118 | 20950 ft | 324 kts | 359° |
| 2026-05-08 16:33 | 54.41756 | 91.50241 | 20947 ft | 326 kts | 358° |
| 2026-05-08 16:33 | 54.44020 | 91.50344 | 20945 ft | 327 kts | 357° |
| 2026-05-08 16:33 | 54.46276 | 91.50449 | 20949 ft | 328 kts | 358° |
| 2026-05-08 16:33 | 54.48571 | 91.50557 | 20948 ft | 329 kts | 357° |
| 2026-05-08 16:34 | 54.50877 | 91.50668 | 20943 ft | 330 kts | 358° |
| 2026-05-08 16:34 | 54.53173 | 91.50781 | 20939 ft | 331 kts | 358° |
| 2026-05-08 16:34 | 54.55492 | 91.50897 | 20945 ft | 331 kts | 358° |
| 2026-05-08 16:34 | 54.57789 | 91.51012 | 20942 ft | 331 kts | 358° |
| 2026-05-08 16:35 | 54.60101 | 91.51129 | 20941 ft | 331 kts | 358° |
| 2026-05-08 16:35 | 54.62434 | 91.51247 | 20940 ft | 331 kts | 357° |
| 2026-05-08 16:35 | 54.64726 | 91.51365 | 20938 ft | 331 kts | 357° |
| 2026-05-08 16:35 | 54.67047 | 91.51483 | 20936 ft | 331 kts | 358° |
| 2026-05-08 16:36 | 54.69340 | 91.51601 | 20940 ft | 331 kts | 358° |
| 2026-05-08 16:36 | 54.71690 | 91.51722 | 20942 ft | 331 kts | 358° |
| 2026-05-08 16:36 | 54.74018 | 91.51842 | 20944 ft | 332 kts | 357° |
| 2026-05-08 16:36 | 54.76352 | 91.51962 | 20942 ft | 332 kts | 357° |
| 2026-05-08 16:37 | 54.78649 | 91.52080 | 20943 ft | 332 kts | 357° |
| 2026-05-08 16:37 | 54.80967 | 91.52200 | 20944 ft | 332 kts | 357° |
| 2026-05-08 16:37 | 54.83282 | 91.52320 | 20942 ft | 333 kts | 357° |
| 2026-05-08 16:37 | 54.85582 | 91.52439 | 20943 ft | 333 kts | 357° |
| 2026-05-08 16:38 | 54.87900 | 91.52560 | 20940 ft | 333 kts | 358° |
| 2026-05-08 16:38 | 54.90210 | 91.52680 | 20936 ft | 333 kts | 357° |
| 2026-05-08 16:38 | 54.92542 | 91.52801 | 20935 ft | 332 kts | 358° |
| 2026-05-08 16:38 | 54.94855 | 91.52922 | 20935 ft | 333 kts | 357° |
| 2026-05-08 16:39 | 54.97178 | 91.53043 | 20940 ft | 333 kts | 357° |
| 2026-05-08 16:39 | 54.99519 | 91.53152 | 20938 ft | 333 kts | 357° |
| 2026-05-08 16:39 | 55.01835 | 91.53252 | 20938 ft | 333 kts | 357° |
| 2026-05-08 16:39 | 55.04185 | 91.53354 | 20937 ft | 334 kts | 357° |
| 2026-05-08 16:40 | 55.06508 | 91.53455 | 20933 ft | 334 kts | 357° |
| 2026-05-08 16:40 | 55.08828 | 91.53556 | 20936 ft | 334 kts | 357° |
| 2026-05-08 16:40 | 55.11134 | 91.53659 | 20752 ft | 325 kts | 357° |
| 2026-05-08 16:40 | 55.13399 | 91.53755 | 20395 ft | 320 kts | 357° |
| 2026-05-08 16:41 | 55.15636 | 91.53850 | 19987 ft | 318 kts | 357° |
| 2026-05-08 16:41 | 55.17837 | 91.53943 | 19566 ft | 317 kts | 357° |
| 2026-05-08 16:41 | 55.20035 | 91.54037 | 19141 ft | 315 kts | 357° |
| 2026-05-08 16:42 | 55.24382 | 91.54227 | 18293 ft | 314 kts | 357° |
| 2026-05-08 16:42 | 55.26569 | 91.54322 | 17868 ft | 313 kts | 357° |
| 2026-05-08 16:42 | 55.28717 | 91.54417 | 17453 ft | 312 kts | 357° |
| 2026-05-08 16:42 | 55.30889 | 91.54514 | 17061 ft | 310 kts | 357° |
| 2026-05-08 16:43 | 55.33022 | 91.54610 | 16969 ft | 310 kts | 357° |
| 2026-05-08 16:43 | 55.35188 | 91.54710 | 16947 ft | 309 kts | 357° |
| 2026-05-08 16:43 | 55.37327 | 91.54810 | 16939 ft | 308 kts | 357° |
| 2026-05-08 16:43 | 55.39465 | 91.54909 | 16938 ft | 307 kts | 358° |
| 2026-05-08 16:44 | 55.41575 | 91.55566 | 16916 ft | 314 kts | 18° |
| 2026-05-08 16:44 | 55.43338 | 91.57816 | 16952 ft | 319 kts | 39° |
| 2026-05-08 16:44 | 55.44933 | 91.60615 | 16880 ft | 323 kts | 40° |
| 2026-05-08 16:44 | 55.46531 | 91.63470 | 16556 ft | 332 kts | 41° |
| 2026-05-08 16:45 | 55.48176 | 91.66421 | 16261 ft | 332 kts | 42° |
| 2026-05-08 16:45 | 55.49795 | 91.69324 | 16007 ft | 329 kts | 42° |
| 2026-05-08 16:45 | 55.51402 | 91.72203 | 15720 ft | 327 kts | 42° |
| 2026-05-08 16:45 | 55.52996 | 91.75060 | 15427 ft | 325 kts | 42° |
| 2026-05-08 16:46 | 55.54596 | 91.77928 | 15127 ft | 324 kts | 42° |
| 2026-05-08 16:46 | 55.56171 | 91.80755 | 14826 ft | 323 kts | 42° |
| 2026-05-08 16:46 | 55.57766 | 91.83618 | 14532 ft | 322 kts | 42° |
| 2026-05-08 16:46 | 55.59334 | 91.86435 | 14236 ft | 321 kts | 42° |
| 2026-05-08 16:47 | 55.60915 | 91.89278 | 13935 ft | 320 kts | 42° |
| 2026-05-08 16:47 | 55.62487 | 91.92110 | 13633 ft | 318 kts | 42° |
| 2026-05-08 16:47 | 55.64018 | 91.94869 | 13333 ft | 313 kts | 42° |
| 2026-05-08 16:47 | 55.65551 | 91.97634 | 13031 ft | 308 kts | 42° |
| 2026-05-08 16:48 | 55.67041 | 92.00320 | 12713 ft | 294 kts | 41° |
| 2026-05-08 16:48 | 55.68449 | 92.02863 | 12396 ft | 285 kts | 42° |
| 2026-05-08 16:48 | 55.69842 | 92.05386 | 12100 ft | 286 kts | 42° |
| 2026-05-08 16:48 | 55.71228 | 92.07896 | 11802 ft | 283 kts | 41° |
| 2026-05-08 16:49 | 55.72604 | 92.10390 | 11495 ft | 279 kts | 42° |
| 2026-05-08 16:49 | 55.73955 | 92.12842 | 11192 ft | 276 kts | 41° |
| 2026-05-08 16:49 | 55.75294 | 92.15270 | 10886 ft | 273 kts | 41° |
| 2026-05-08 16:49 | 55.76747 | 92.17398 | 10582 ft | 267 kts | 31° |
| 2026-05-08 16:50 | 55.78301 | 92.19233 | 10278 ft | 264 kts | 29° |
| 2026-05-08 16:50 | 55.79832 | 92.21024 | 9981 ft | 263 kts | 29° |
| 2026-05-08 16:50 | 55.81344 | 92.22795 | 9682 ft | 261 kts | 29° |
| 2026-05-08 16:50 | 55.82854 | 92.24571 | 9379 ft | 260 kts | 30° |
| 2026-05-08 16:51 | 55.84373 | 92.26360 | 9070 ft | 258 kts | 30° |
| 2026-05-08 16:51 | 55.85876 | 92.28137 | 8765 ft | 257 kts | 30° |
| 2026-05-08 16:51 | 55.87359 | 92.29894 | 8468 ft | 256 kts | 30° |
| 2026-05-08 16:51 | 55.88854 | 92.31668 | 8164 ft | 255 kts | 30° |
| 2026-05-08 16:52 | 55.90333 | 92.33426 | 7859 ft | 254 kts | 29° |
| 2026-05-08 16:52 | 55.91797 | 92.35168 | 7557 ft | 253 kts | 30° |
| 2026-05-08 16:52 | 55.93269 | 92.36922 | 7251 ft | 252 kts | 29° |
| 2026-05-08 16:52 | 55.94724 | 92.38659 | 6950 ft | 251 kts | 29° |
| 2026-05-08 16:53 | 55.97637 | 92.42143 | 6337 ft | 249 kts | 29° |
| 2026-05-08 16:53 | 55.99062 | 92.43845 | 6027 ft | 248 kts | 29° |
| 2026-05-08 16:53 | 56.00505 | 92.45574 | 5722 ft | 242 kts | 30° |
| 2026-05-08 16:54 | 56.01884 | 92.47224 | 5408 ft | 232 kts | 30° |
| 2026-05-08 16:54 | 56.03212 | 92.48819 | 5096 ft | 224 kts | 30° |
| 2026-05-08 16:54 | 56.04270 | 92.50792 | 4765 ft | 222 kts | 62° |
| 2026-05-08 16:54 | 56.04388 | 92.53545 | 4451 ft | 227 kts | 102° |
| 2026-05-08 16:55 | 56.03856 | 92.56207 | 4186 ft | 228 kts | 110° |
| 2026-05-08 16:55 | 56.03227 | 92.58810 | 4066 ft | 222 kts | 116° |
| 2026-05-08 16:55 | 56.02512 | 92.61217 | 4019 ft | 213 kts | 114° |
| 2026-05-08 16:55 | 56.01874 | 92.63606 | 4005 ft | 214 kts | 113° |
| 2026-05-08 16:56 | 56.01232 | 92.66035 | 4005 ft | 216 kts | 114° |
| 2026-05-08 16:56 | 56.00588 | 92.68504 | 3998 ft | 219 kts | 114° |
| 2026-05-08 16:56 | 55.99936 | 92.71002 | 3997 ft | 221 kts | 114° |
| 2026-05-08 16:56 | 55.99280 | 92.73522 | 3987 ft | 222 kts | 114° |
| 2026-05-08 16:57 | 55.98630 | 92.76035 | 3982 ft | 224 kts | 114° |
| 2026-05-08 16:57 | 55.97963 | 92.78629 | 3987 ft | 226 kts | 114° |
| 2026-05-08 16:57 | 55.97305 | 92.81201 | 3980 ft | 228 kts | 112° |
| 2026-05-08 16:57 | 55.96994 | 92.83918 | 3970 ft | 224 kts | 83° |
| 2026-05-08 16:58 | 55.97521 | 92.86475 | 3975 ft | 216 kts | 49° |
| 2026-05-08 16:58 | 55.98667 | 92.88086 | 3984 ft | 210 kts | 25° |
| 2026-05-08 16:58 | 55.99983 | 92.89275 | 3976 ft | 212 kts | 24° |
| 2026-05-08 16:58 | 56.01314 | 92.90477 | 3975 ft | 213 kts | 24° |
| 2026-05-08 16:59 | 56.02661 | 92.91679 | 3972 ft | 214 kts | 24° |
| 2026-05-08 16:59 | 56.04014 | 92.92858 | 3969 ft | 215 kts | 20° |
| 2026-05-08 16:59 | 56.05455 | 92.93230 | 3966 ft | 209 kts | 349° |
| 2026-05-08 16:59 | 56.06741 | 92.92097 | 3967 ft | 206 kts | 315° |
| 2026-05-08 17:00 | 56.07381 | 92.89842 | 3996 ft | 204 kts | 290° |
| 2026-05-08 17:00 | 56.08004 | 92.87536 | 3986 ft | 204 kts | 301° |
| 2026-05-08 17:00 | 56.08625 | 92.85219 | 3977 ft | 206 kts | 293° |
| 2026-05-08 17:00 | 56.09201 | 92.82839 | 3979 ft | 207 kts | 296° |
| 2026-05-08 17:01 | 56.09801 | 92.80473 | 3986 ft | 208 kts | 295° |
| 2026-05-08 17:01 | 56.10368 | 92.78103 | 3973 ft | 198 kts | 295° |
| 2026-05-08 17:01 | 56.10913 | 92.75874 | 3831 ft | 196 kts | 295° |
| 2026-05-08 17:01 | 56.11453 | 92.73634 | 3567 ft | 191 kts | 295° |
| 2026-05-08 17:02 | 56.11978 | 92.71450 | 3249 ft | 185 kts | 295° |
| 2026-05-08 17:02 | 56.12469 | 92.69411 | 2960 ft | 174 kts | 295° |
| 2026-05-08 17:02 | 56.12951 | 92.67436 | 2778 ft | 165 kts | 295° |
| 2026-05-08 17:02 | 56.13390 | 92.65595 | 2565 ft | 154 kts | 295° |
| 2026-05-08 17:03 | 56.13800 | 92.63889 | 2327 ft | 144 kts | 296° |
| 2026-05-08 17:03 | 56.14193 | 92.62260 | 2127 ft | 137 kts | 296° |
| 2026-05-08 17:03 | 56.14572 | 92.60702 | 1963 ft | 135 kts | 296° |
| 2026-05-08 17:03 | 56.14944 | 92.59156 | 1807 ft | 134 kts | 295° |
| 2026-05-08 17:04 | 56.15322 | 92.57588 | 1635 ft | 138 kts | 295° |
| 2026-05-08 17:04 | 56.15699 | 92.55992 | 1448 ft | 141 kts | 294° |
| 2026-05-08 17:04 | 56.16087 | 92.54360 | 1240 ft | 141 kts | 296° |
| 2026-05-08 17:04 | 56.16472 | 92.52768 | 1036 ft | 133 kts | 294° |
| 2026-05-08 17:05 | 56.16814 | 92.51334 | 931 ft | 102 kts | 293° |
| 2026-05-08 17:05 | 56.17035 | 92.50407 | 926 ft | 65 kts | 293° |
| 2026-05-08 17:05 | 56.17198 | 92.49786 | 921 ft | 46 kts | 299° |
| 2026-05-08 17:05 | 56.17310 | 92.49325 | 916 ft | 35 kts | 293° |
| 2026-05-08 17:06 | 56.17399 | 92.48962 | 913 ft | 28 kts | 293° |
| 2026-05-08 17:06 | 56.17487 | 92.48704 | 911 ft | 22 kts | 324° |
| 2026-05-08 17:06 | 56.17600 | 92.48564 | 908 ft | 17 kts | 324° |
| 2026-05-08 17:06 | 56.17688 | 92.48447 | 909 ft | 13 kts | 324° |
| 2026-05-08 17:07 | 56.17754 | 92.48396 | 912 ft | 8 kts | 9° |
| 2026-05-08 17:07 | 56.17805 | 92.48428 | 913 ft | 8 kts | 23° |
| 2026-05-08 17:07 | 56.17866 | 92.48453 | 914 ft | 9 kts | 335° |
| 2026-05-08 17:07 | 56.17897 | 92.48365 | 917 ft | 8 kts | 291° |
| 2026-05-08 17:08 | 56.17929 | 92.48299 | 919 ft | 5 kts | 342° |
| 2026-05-08 17:08 | 56.17975 | 92.48313 | 921 ft | 6 kts | 22° |
| 2026-05-08 17:08 | 56.18000 | 92.48332 | 921 ft | 0 kts | 22° |